Search for airport 
image banner adimage banner adimage banner ad
image banner ad

PA45 - Logue Field

Located in Bodines, United States

ICAO - PA45, IATA -

Data provided by Airmate  

General information

Coordinates: N41°25'8" W76°55'36"
Elevation is 1320 feet MSL.
Magnetic variation is -11° East
View others Airports in Pennsylvania

Operational data

Special qualification required
Current time UTC:
Current local time:
Weather at : KIPT - Williamsport Rgnl ( 20 km )
METAR: KIPT 091254Z 30006KT 10SM CLR 08/03 A3008 RMK AO2 SLP188 T00830033
TAF: KIPT 091131Z 0912/1012 27005KT P6SM SCT100 FM091600 15006KT 4SM -RA BR OVC025 FM092000 12007KT 3SM -RA BR OVC008 FM100400 06008G15KT 2SM -RA BR OVC006 FM101100 35008G15KT P6SM BKN009 OVC015
View NOTAMs / SUP AIP / TFR affecting this airport [VIEW]
Communications frequencies: [VIEW]

Runways:

RWY identifierQFULength (ft)Width (ft)SurfaceLDA (ft)
182500180GRASS
362500180GRASS

Airport contact information

Address: Bodines United States

Satellite view of PA45